Terminal Aerodrome Forecast
Issued by NWS Sioux Falls, SD

Home | Current Version | Previous Version | Graphics & Text | Print | Product List | Glossary On
Versions: 1 2 3 4 5 6 7 8 9 10 11 12 13 14 15 16 17 18 19
000
FTUS43 KFSD 141538 AAA
TAFHON
TAF AMD
KHON 141538Z 1416/1512 30008KT P6SM VCSH SCT030 OVC050
     FM141800 32012G20KT P6SM VCSH SCT015 OVC030
     FM150000 30009KT P6SM OVC040
     FM150800 26007KT P6SM BKN045=

USA.gov is the U.S. government's official web portal to all federal, state and local government web resources and services.